• Join FlightAware (Why Join?)
  • Login
  • US Flag 
05:42AM EST


 

Airport Tracker/Info


-or-


 

Live Flight TrackerFlight Track Log ✈ OPT498 ✈ 20-Aug-2014 ✈ KCIN - KRST

Flight Track Log - Related Links

Times and Time Zones

All times are in EDT time to prevent confusion due to time zone crossing. See the OPT498 flight status page for this flight to view local times or setup timezone preferences in your user account.

Time Position Orientation Groundspeed Altitude Reporting Facility
EDT Latitude Longitude Course Direction KTS MPH feet Rate Location/Type
06:15PM 42.0994 -94.6522 47° Northeast 216 249 4,800  Level Minneapolis Center
06:17PM 42.1386 -94.5756 55° Northeast 235 270 5,900 900 Climbing Minneapolis Center
06:18PM 42.1847 -94.4886 54° Northeast 284 327 6,700 420 Climbing Minneapolis Center
06:19PM 42.2269 -94.4094 54° Northeast 279 321 6,800 180 Climbing Minneapolis Center
06:20PM 42.2714 -94.3292 53° Northeast 273 314 7,100 720 Climbing Minneapolis Center
06:21PM 42.3181 -94.2558 49° Northeast 262 302 8,400 1,680 Climbing Minneapolis Center
06:22PM 42.3881 -94.1750 40° Northeast 273 314 10,600 1,200 Climbing Minneapolis Center
06:23PM 42.4517 -94.1008 41° Northeast 297 342 10,900 180 Climbing Minneapolis Center
06:24PM 42.5161 -94.0242 41° Northeast 306 352 11,000  Climbing Minneapolis Center
06:25PM 42.5833 -93.9481 40° Northeast 312 359 11,000  Level Minneapolis Center
06:26PM 42.6464 -93.8697 42° Northeast 312 359 11,000  Level Minneapolis Center
06:27PM 42.7269 -93.7828 38° Northeast 310 357 11,000  Level Minneapolis Center
06:28PM 42.7950 -93.7131 37° Northeast 310 357 11,000  Level Minneapolis Center
06:29PM 42.8636 -93.6356 40° Northeast 316 364 11,000  Level Minneapolis Center
06:30PM 42.9311 -93.5544 41° Northeast 320 368 11,000  Level Minneapolis Center
06:31PM 42.9969 -93.4689 44° Northeast 322 371 11,000  Level Minneapolis Center
06:32PM 43.0636 -93.3883 41° Northeast 325 374 11,000  Level Minneapolis Center
06:33PM 43.1483 -93.3019 37° Northeast 322 371 11,000  Level Minneapolis Center
06:34PM 43.2203 -93.2278 37° Northeast 322 371 11,000  Level Minneapolis Center
06:35PM 43.2925 -93.1536 37° Northeast 323 372 11,000  Level Minneapolis Center
06:36PM 43.3619 -93.0811 37° Northeast 322 371 11,000  Level Minneapolis Center
06:37PM 43.4308 -93.0092 37° Northeast 316 364 11,000 -540 Level Minneapolis Center
06:38PM 43.5056 -92.9281 38° Northeast 303 349 9,900 -1,080 Descending Minneapolis Center
06:39PM 43.5733 -92.8569 37° Northeast 288 331 8,800 -1,020 Descending Minneapolis Center
06:40PM 43.6369 -92.7892 38° Northeast 289 333 7,800 -1,020 Descending Minneapolis Center
06:41PM 43.7100 -92.7361 28° Northeast 262 302 6,700 -1,260 Descending Minneapolis Center
06:42PM 43.7750 -92.7103 16° North 248 285 5,300 -1,380 Descending Minneapolis Center
06:43PM 43.8378 -92.6672 26° Northeast 236 272 3,900 -1,080 Descending Minneapolis Center
06:44PM 43.8861 -92.6186 36° Northeast 219 252 3,100 -600 Descending Minneapolis Center
06:46PM 43.9261 -92.5797 35° Northeast 155 178 2,700 -480 Descending Minneapolis Center
06:47PM 43.9542 -92.5528 35° Northeast 129 148 2,200 -180 Descending Minneapolis Center
06:48PM 43.9464 -92.5631 224° Southwest 126 145 2,400 -300 Climbing Minneapolis Center
06:49PM 43.9289 -92.5244 122° Southeast 121 139 1,600 -540 Descending Minneapolis Center
06:50PM 43.9128 -92.5022 135° Southeast 58 67 1,300 -180 Descending Minneapolis Center
06:51PM 43.9156 -92.4983 45° Northeast 16 18 1,300  Level Minneapolis Center
06:52PM 43.9178 -92.4942 53° Northeast 15 17 1,300  Level Minneapolis Center